Time;durP1;ratioP1;P1;durP2;ratioP2;P2;SDS_P1;SDS_P2;PMS_P1;PMS_P2;Temp;Humidity;BMP_temperature;BMP_pressure;BME280_temperature;BME280_humidity;BME280_pressure;Samples;Min_cycle;Max_cycle;Signal;HPM_P1;HPM_P2
2022/05/16 00:00:44;;;;;;;4.07;2.33;;;;;;;19.69;49.67;98566.69;4979304;28;20217;-63
2022/05/16 00:03:12;;;;;;;7.13;2.40;;;;;;;19.71;50.14;98572.59;4976042;28;20224;-63
2022/05/16 00:05:39;;;;;;;5.70;2.80;;;;;;;19.75;50.22;98566.63;4981327;28;20683;-63
2022/05/16 00:08:09;;;;;;;4.97;2.53;;;;;;;19.59;51.94;98567.16;4980955;28;20669;-63
2022/05/16 00:10:36;;;;;;;7.47;2.90;;;;;;;19.47;51.92;98567.81;4978656;28;20199;-64
2022/05/16 00:13:04;;;;;;;9.40;2.70;;;;;;;19.19;55.35;98568.09;4974070;28;20224;-64
2022/05/16 00:15:31;;;;;;;7.20;2.83;;;;;;;19.03;55.96;98564.09;4976092;28;20207;-63
2022/05/16 00:17:59;;;;;;;8.20;3.00;;;;;;;18.99;54.66;98560.22;4959506;28;20201;-62
2022/05/16 00:20:26;;;;;;;5.60;2.77;;;;;;;18.92;54.24;98564.69;4976377;28;20299;-63
2022/05/16 00:22:53;;;;;;;4.60;2.70;;;;;;;18.90;54.65;98564.91;4975168;28;20217;-63
2022/05/16 00:25:20;;;;;;;7.37;2.70;;;;;;;18.95;56.00;98564.28;4977139;28;20200;-63
2022/05/16 00:27:49;;;;;;;3.87;2.70;;;;;;;19.01;54.63;98566.13;4962426;28;20545;-63
2022/05/16 00:30:20;;;;;;;5.60;2.90;;;;;;;19.38;53.09;98576.19;4984345;28;20730;-64
2022/05/16 00:32:48;;;;;;;4.80;3.40;;;;;;;19.66;52.52;98578.50;4975485;28;20229;-63
2022/05/16 00:35:19;;;;;;;6.37;2.50;;;;;;;20.11;50.23;98584.81;4979737;28;20210;-63
2022/05/16 00:37:46;;;;;;;7.13;3.20;;;;;;;20.47;49.02;98591.28;4961008;28;20254;-62
2022/05/16 00:40:15;;;;;;;7.30;3.50;;;;;;;20.93;50.27;98594.59;4978995;28;20212;-64
2022/05/16 00:42:43;;;;;;;6.50;3.30;;;;;;;21.20;50.02;98595.09;4963480;28;20979;-63
2022/05/16 00:45:13;;;;;;;5.17;3.50;;;;;;;21.18;50.52;98580.44;4979670;28;20782;-62
2022/05/16 00:47:42;;;;;;;8.00;3.30;;;;;;;21.14;49.99;98589.88;4985325;28;20214;-62
2022/05/16 00:50:10;;;;;;;8.60;3.40;;;;;;;21.07;50.18;98581.97;4966449;28;21642;-62
2022/05/16 00:52:41;;;;;;;7.00;3.40;;;;;;;21.07;50.30;98582.81;4959153;28;20227;-63
2022/05/16 00:55:11;;;;;;;5.53;3.27;;;;;;;20.93;51.00;98576.00;4977604;28;20229;-64
2022/05/16 00:57:41;;;;;;;4.03;3.57;;;;;;;20.82;51.17;98566.13;4977532;28;20205;-64
2022/05/16 01:00:12;;;;;;;6.07;4.10;;;;;;;20.67;52.10;98567.25;4977344;28;20208;-63
2022/05/16 01:05:28;;;;;;;7.40;3.30;;;;;;;20.49;52.63;98566.16;4988627;28;20206;-63
2022/05/16 01:08:00;;;;;;;6.17;3.00;;;;;;;20.46;52.69;98553.34;4985830;28;20218;-63
2022/05/16 01:10:27;;;;;;;4.90;3.30;;;;;;;20.41;52.60;98550.53;4985371;28;20248;-61
2022/05/16 01:12:55;;;;;;;4.60;3.47;;;;;;;20.32;53.33;98547.34;4982987;28;20229;-62
2022/05/16 01:15:33;;;;;;;7.83;3.20;;;;;;;20.35;52.98;98546.91;4983628;28;20203;-62
2022/05/16 01:18:21;;;;;;;5.67;3.60;;;;;;;20.41;53.22;98542.56;4973253;28;20206;-63
2022/05/16 01:21:11;;;;;;;6.77;3.40;;;;;;;20.43;53.47;98537.88;4975176;28;20196;-63
2022/05/16 01:23:44;;;;;;;10.60;3.30;;;;;;;20.40;53.43;98529.56;4970579;28;20441;-62
2022/05/16 01:26:14;;;;;;;10.03;3.73;;;;;;;20.26;54.29;98537.63;4979497;28;20602;-63
2022/05/16 01:28:41;;;;;;;7.93;3.33;;;;;;;20.24;54.00;98533.53;4977826;28;20218;-61
2022/05/16 01:31:08;;;;;;;7.83;3.03;;;;;;;20.11;54.60;98530.00;4977502;28;20211;-61
2022/05/16 01:33:36;;;;;;;7.17;3.40;;;;;;;20.00;55.10;98520.09;4973946;28;20715;-62
2022/05/16 01:36:02;;;;;;;4.40;3.67;;;;;;;19.83;56.26;98519.75;4974713;28;20821;-62
2022/05/16 01:38:31;;;;;;;4.83;3.47;;;;;;;19.72;56.94;98529.19;4981126;28;20286;-62
2022/05/16 01:41:04;;;;;;;4.77;3.10;;;;;;;19.53;57.73;98531.72;4974839;28;20856;-62
2022/05/16 01:43:33;;;;;;;4.50;3.20;;;;;;;19.33;57.86;98527.34;4978468;28;20563;-62
2022/05/16 01:46:00;;;;;;;5.50;3.30;;;;;;;19.24;58.22;98528.59;4979098;28;21109;-65
2022/05/16 01:48:30;;;;;;;4.60;3.00;;;;;;;19.07;58.56;98527.47;4981354;28;20222;-61
2022/05/16 01:51:00;;;;;;;5.00;3.43;;;;;;;18.93;58.68;98529.28;4974873;28;20203;-62
2022/05/16 01:53:27;;;;;;;3.40;3.10;;;;;;;18.86;59.29;98518.75;4980519;28;20206;-63
2022/05/16 01:55:55;;;;;;;4.80;3.13;;;;;;;18.80;58.98;98524.84;4979506;28;20210;-60
2022/05/16 01:58:24;;;;;;;5.33;3.13;;;;;;;18.82;58.64;98520.16;4979131;28;20190;-62
2022/05/16 02:00:52;;;;;;;3.70;3.00;;;;;;;18.84;58.75;98521.56;4964843;28;20686;-61
2022/05/16 02:03:20;;;;;;;5.03;2.43;;;;;;;19.08;56.26;98518.50;4978143;28;20684;-59
2022/05/16 02:05:47;;;;;;;5.53;2.50;;;;;;;19.24;55.59;98514.56;4982864;28;20304;-62
2022/05/16 02:08:15;;;;;;;3.87;2.30;;;;;;;19.42;54.87;98511.22;4974344;28;20228;-62
2022/05/16 02:10:43;;;;;;;4.27;2.30;;;;;;;19.46;54.60;98496.53;4982326;28;20285;-63
2022/05/16 02:13:11;;;;;;;4.00;2.67;;;;;;;19.60;54.50;98495.44;4966556;28;20309;-62
2022/05/16 02:15:43;;;;;;;3.87;2.80;;;;;;;19.87;53.39;98497.94;4964267;28;20214;-61
2022/05/16 02:18:10;;;;;;;4.30;2.20;;;;;;;19.83;53.65;98490.59;4979535;28;20687;-61
2022/05/16 02:20:37;;;;;;;5.73;3.47;;;;;;;19.86;53.69;98500.78;4966139;28;20219;-61
2022/05/16 02:25:50;;;;;;;5.83;2.77;;;;;;;19.74;54.37;98498.00;4978965;28;20695;-62
2022/05/16 02:28:18;;;;;;;5.20;2.70;;;;;;;19.64;55.29;98503.75;4958367;28;20230;-63
2022/05/16 02:30:47;;;;;;;4.23;3.00;;;;;;;19.51;55.03;98503.84;4978292;28;20282;-62
2022/05/16 02:33:17;;;;;;;6.43;2.80;;;;;;;19.51;55.44;98507.31;4957930;28;20320;-61
2022/05/16 02:35:45;;;;;;;4.93;2.77;;;;;;;19.43;56.35;98515.50;4984147;28;20215;-62
2022/05/16 02:38:15;;;;;;;3.47;2.53;;;;;;;19.36;56.06;98515.53;4974068;28;20693;-62
2022/05/16 02:40:42;;;;;;;4.67;2.83;;;;;;;19.30;56.83;98517.16;4979439;28;20289;-61
2022/05/16 02:43:09;;;;;;;3.87;2.50;;;;;;;19.22;57.98;98513.97;4978746;28;20250;-62
2022/05/16 02:45:37;;;;;;;5.17;2.60;;;;;;;19.10;57.66;98521.72;4981744;28;20206;-62
2022/05/16 02:48:06;;;;;;;7.20;2.70;;;;;;;18.99;58.20;98533.78;4978560;28;20196;-61
2022/05/16 02:50:33;;;;;;;4.43;2.90;;;;;;;18.83;59.76;98527.09;4978237;28;20203;-62
2022/05/16 02:53:00;;;;;;;3.73;3.10;;;;;;;18.70;59.82;98525.25;4981310;28;20229;-61
2022/05/16 02:55:29;;;;;;;7.17;3.00;;;;;;;18.59;59.89;98521.44;4976218;28;20686;-61
2022/05/16 02:57:57;;;;;;;7.17;3.00;;;;;;;18.53;62.00;98522.25;4984373;28;20217;-62
2022/05/16 03:00:24;;;;;;;3.57;2.67;;;;;;;18.46;61.61;98527.56;4957663;28;20199;-61
2022/05/16 03:02:51;;;;;;;9.17;3.03;;;;;;;18.39;62.10;98521.44;4978810;28;20725;-61
2022/05/16 03:05:21;;;;;;;6.90;2.60;;;;;;;18.46;60.12;98519.63;4982600;28;20292;-61
2022/05/16 03:07:48;;;;;;;3.13;2.70;;;;;;;18.42;61.11;98513.13;4979275;28;20212;-61
2022/05/16 03:10:16;;;;;;;4.20;2.67;;;;;;;18.36;61.42;98521.88;4983624;28;20226;-62
2022/05/16 03:12:45;;;;;;;3.20;2.77;;;;;;;18.24;62.38;98525.13;4980383;28;20721;-62
2022/05/16 03:15:13;;;;;;;3.23;2.70;;;;;;;18.25;62.59;98525.91;4979193;28;20201;-62
2022/05/16 03:17:41;;;;;;;4.50;2.60;;;;;;;18.11;63.38;98541.75;4968895;28;20213;-62
2022/05/16 03:20:12;;;;;;;3.80;2.57;;;;;;;18.07;63.26;98552.94;4986490;28;20208;-62
2022/05/16 03:22:41;;;;;;;6.60;2.83;;;;;;;18.04;64.85;98550.69;4978985;28;20226;-61
2022/05/16 03:25:09;;;;;;;5.67;3.30;;;;;;;18.08;65.93;98573.84;4966754;28;20275;-61
2022/05/16 03:27:36;;;;;;;9.50;4.27;;;;;;;18.07;70.95;98569.59;4985678;28;20296;-62
2022/05/16 03:30:04;;;;;;;9.47;3.47;;;;;;;17.98;74.11;98579.50;4986951;28;20227;-62
2022/05/16 03:32:31;;;;;;;19.87;4.63;;;;;;;17.78;81.83;98563.63;4966407;28;20348;-62
2022/05/16 03:34:58;;;;;;;9.20;3.83;;;;;;;17.71;86.69;98560.16;4982435;28;20212;-62
2022/05/16 03:37:25;;;;;;;12.87;4.40;;;;;;;17.58;89.61;98554.81;4982110;28;20205;-62
2022/05/16 03:42:38;;;;;;;10.77;4.70;;;;;;;17.39;95.06;98552.75;4985988;28;20999;-62
2022/05/16 03:45:05;;;;;;;8.83;4.40;;;;;;;17.33;94.46;98558.81;4985562;28;20203;-62
2022/05/16 03:47:32;;;;;;;11.53;4.30;;;;;;;17.19;95.52;98554.47;4980142;28;20205;-62
2022/05/16 03:49:59;;;;;;;6.40;4.77;;;;;;;17.13;96.53;98552.63;4981575;28;20225;-62
2022/05/16 03:52:26;;;;;;;9.93;5.00;;;;;;;17.01;98.14;98550.53;4982260;28;20236;-62
2022/05/16 03:54:55;;;;;;;6.67;3.93;;;;;;;16.96;98.73;98550.25;4982240;28;20754;-62
2022/05/16 03:57:22;;;;;;;6.43;4.10;;;;;;;16.82;100.00;98546.75;4979551;28;20696;-62
2022/05/16 03:59:48;;;;;;;5.97;3.77;;;;;;;16.75;99.12;98556.44;4968159;28;20702;-62
2022/05/16 04:02:16;;;;;;;6.13;3.90;;;;;;;16.63;100.00;98549.03;4985235;28;20227;-62
2022/05/16 04:04:43;;;;;;;4.77;3.30;;;;;;;16.53;100.00;98540.66;4983037;28;20219;-62
2022/05/16 04:07:11;;;;;;;6.47;3.73;;;;;;;16.41;100.00;98548.28;4982343;28;20272;-62
2022/05/16 04:09:38;;;;;;;4.70;3.63;;;;;;;16.28;100.00;98538.44;4987749;28;20342;-62
2022/05/16 04:12:08;;;;;;;7.90;3.70;;;;;;;16.21;100.00;98543.66;4985267;28;20327;-62
2022/05/16 04:14:34;;;;;;;8.97;4.10;;;;;;;16.14;100.00;98539.31;4983859;28;20216;-62
2022/05/16 04:17:02;;;;;;;5.57;3.70;;;;;;;16.12;100.00;98530.78;4983154;28;20805;-62
2022/05/16 04:19:29;;;;;;;6.50;3.93;;;;;;;16.04;100.00;98527.28;4985910;28;20203;-62
2022/05/16 04:21:56;;;;;;;7.07;3.93;;;;;;;15.99;100.00;98529.66;4986826;28;20637;-62
2022/05/16 04:24:22;;;;;;;6.80;3.83;;;;;;;15.92;100.00;98523.53;4988559;28;20201;-62
2022/05/16 04:26:50;;;;;;;7.43;4.40;;;;;;;15.91;100.00;98527.16;4987080;28;20252;-62
2022/05/16 04:29:18;;;;;;;8.00;4.03;;;;;;;15.89;100.00;98523.94;4984935;28;20546;-62
2022/05/16 04:31:46;;;;;;;6.10;4.10;;;;;;;15.92;100.00;98528.78;4984993;28;20316;-61
2022/05/16 04:34:12;;;;;;;8.50;4.37;;;;;;;15.87;100.00;98523.31;4978416;28;20618;-61
2022/05/16 04:36:40;;;;;;;5.93;4.60;;;;;;;15.91;100.00;98527.16;4980034;28;20209;-61
2022/05/16 04:39:06;;;;;;;5.57;4.53;;;;;;;15.91;100.00;98528.00;4961683;28;20355;-62
2022/05/16 04:44:19;;;;;;;6.00;4.23;;;;;;;15.97;100.00;98531.69;4973620;28;20267;-62
2022/05/16 04:46:47;;;;;;;5.97;4.50;;;;;;;16.03;100.00;98530.91;4981530;28;20749;-62
2022/05/16 04:49:13;;;;;;;5.40;4.53;;;;;;;16.03;100.00;98532.75;4979638;28;20760;-61
2022/05/16 04:51:40;;;;;;;11.30;4.43;;;;;;;16.08;100.00;98527.75;4976212;28;20234;-61
2022/05/16 04:54:07;;;;;;;6.67;4.63;;;;;;;16.11;100.00;98539.69;4962900;28;20249;-61
2022/05/16 04:56:34;;;;;;;5.07;4.30;;;;;;;16.20;100.00;98546.47;4980308;28;20205;-62
2022/05/16 04:59:01;;;;;;;5.67;4.60;;;;;;;16.24;100.00;98555.63;4960282;28;20207;-61
2022/05/16 05:01:29;;;;;;;6.60;4.80;;;;;;;16.35;100.00;98552.47;4964733;28;20234;-61
2022/05/16 05:03:56;;;;;;;9.33;4.70;;;;;;;16.48;100.00;98559.66;4960534;28;20658;-61
2022/05/16 05:06:23;;;;;;;6.83;4.97;;;;;;;16.64;100.00;98569.13;4981726;28;20214;-61
2022/05/16 05:08:50;;;;;;;7.47;4.60;;;;;;;16.67;100.00;98575.81;4981493;28;20621;-61
2022/05/16 05:16:47;;;;;;;8.43;4.90;;;;;;;17.17;100.00;98572.31;4979817;28;20655;-61
2022/05/16 05:19:15;;;;;;;6.17;4.67;;;;;;;17.34;100.00;98580.72;4983591;28;20204;-61
2022/05/16 05:21:41;;;;;;;6.67;4.80;;;;;;;17.45;99.64;98582.78;4980927;28;20243;-60
2022/05/16 05:24:09;;;;;;;6.53;4.77;;;;;;;17.55;99.59;98585.88;4963388;28;20223;-61
2022/05/16 05:26:37;;;;;;;9.80;4.80;;;;;;;17.53;98.39;98589.72;4983547;28;20744;-61
2022/05/16 05:29:03;;;;;;;6.60;4.67;;;;;;;17.54;99.71;98588.69;4981956;28;20204;-61
2022/05/16 05:31:30;;;;;;;5.03;4.30;;;;;;;17.54;100.00;98597.44;4976088;28;20325;-61
2022/05/16 05:33:59;;;;;;;5.43;4.70;;;;;;;17.50;99.93;98598.84;4962113;28;20668;-62
2022/05/16 05:36:26;;;;;;;9.70;4.53;;;;;;;17.43;99.53;98592.72;4957704;28;20942;-62
2022/05/16 05:38:53;;;;;;;9.87;4.53;;;;;;;17.33;98.68;98600.19;4986673;28;20251;-62
2022/05/16 05:41:22;;;;;;;6.27;3.67;;;;;;;17.37;98.73;98596.16;4982985;28;20228;-61
2022/05/16 05:43:49;;;;;;;8.87;4.37;;;;;;;17.37;97.86;98589.06;4978457;28;20302;-61
2022/05/16 05:46:17;;;;;;;6.93;4.37;;;;;;;17.38;98.83;98595.13;4978268;28;20582;-61
2022/05/16 05:48:44;;;;;;;7.10;4.30;;;;;;;17.51;98.94;98599.66;4980844;28;20213;-61
2022/05/16 05:51:13;;;;;;;6.20;4.50;;;;;;;17.50;99.65;98590.09;4978484;28;20235;-61
2022/05/16 05:53:41;;;;;;;5.10;4.60;;;;;;;17.77;93.69;98588.41;4977405;28;20217;-62
2022/05/16 05:56:08;;;;;;;7.50;5.23;;;;;;;17.96;93.65;98596.56;4960298;28;20956;-61
2022/05/16 05:58:36;;;;;;;8.30;5.27;;;;;;;18.15;93.15;98601.09;4962144;28;20299;-61
2022/05/16 06:01:03;;;;;;;9.90;5.50;;;;;;;18.27;92.07;98609.25;4982498;28;20275;-61
2022/05/16 06:03:31;;;;;;;7.00;4.87;;;;;;;18.55;89.08;98618.81;4979241;28;20289;-62
2022/05/16 06:06:18;;;;;;;7.47;5.37;;;;;;;18.81;85.03;98624.31;4986298;28;20286;-61
2022/05/16 06:08:46;;;;;;;8.20;5.20;;;;;;;19.08;84.58;98629.63;4971003;28;20312;-62
2022/05/16 06:11:13;;;;;;;9.50;5.33;;;;;;;19.18;85.19;98633.44;4975993;28;20226;-61
2022/05/16 06:13:40;;;;;;;6.30;5.00;;;;;;;19.25;85.61;98633.41;4977904;28;20216;-62
2022/05/16 06:16:08;;;;;;;6.90;5.33;;;;;;;19.41;86.12;98634.00;4986550;28;20615;-62
2022/05/16 06:18:35;;;;;;;6.10;5.40;;;;;;;19.30;86.08;98638.09;4983160;28;20589;-61
2022/05/16 06:21:02;;;;;;;6.73;4.60;;;;;;;19.30;86.42;98641.56;4956442;28;20212;-61
2022/05/16 06:23:30;;;;;;;8.40;4.90;;;;;;;19.41;77.46;98647.22;4963083;28;20205;-61
2022/05/16 06:25:58;;;;;;;8.33;4.80;;;;;;;19.47;81.42;98647.22;4983313;28;20216;-61
2022/05/16 06:28:27;;;;;;;6.57;5.07;;;;;;;19.48;82.84;98658.63;4985402;28;20227;-62
2022/05/16 06:30:56;;;;;;;9.60;5.40;;;;;;;19.52;83.88;98659.81;4981694;28;20217;-62
2022/05/16 06:33:25;;;;;;;6.57;5.13;;;;;;;19.61;83.49;98671.00;4981482;28;20217;-61
2022/05/16 06:35:53;;;;;;;8.30;4.97;;;;;;;19.65;85.80;98676.69;4975931;28;20549;-61
2022/05/16 06:38:23;;;;;;;5.80;4.70;;;;;;;19.80;85.08;98679.06;4979886;28;20209;-61
2022/05/16 06:40:51;;;;;;;7.77;4.67;;;;;;;19.86;83.27;98679.06;4975135;28;20678;-61
2022/05/16 06:43:21;;;;;;;8.03;4.50;;;;;;;20.02;81.13;98692.88;4978400;28;20322;-62
2022/05/16 06:45:48;;;;;;;6.13;4.37;;;;;;;20.18;77.91;98695.03;4969838;28;20229;-62
2022/05/16 06:48:15;;;;;;;9.37;4.53;;;;;;;20.20;73.18;98692.97;4987851;28;20214;-62
2022/05/16 06:50:43;;;;;;;10.47;5.13;;;;;;;20.43;77.77;98701.44;4984901;28;20770;-61
2022/05/16 06:53:12;;;;;;;7.83;5.10;;;;;;;20.44;78.18;98695.91;4987397;28;20597;-61
2022/05/16 06:55:39;;;;;;;8.10;4.23;;;;;;;20.60;67.38;98705.22;4981189;28;20231;-61
2022/05/16 06:58:07;;;;;;;7.50;4.40;;;;;;;20.92;66.73;98701.75;4979885;28;20202;-61
2022/05/16 07:00:35;;;;;;;10.63;4.43;;;;;;;20.90;66.78;98706.44;4981031;28;20203;-62
2022/05/16 07:03:02;;;;;;;6.80;4.90;;;;;;;20.99;68.24;98707.81;4985724;28;20224;-61
2022/05/16 07:05:29;;;;;;;9.97;4.57;;;;;;;21.09;62.11;98710.78;4969786;28;20196;-62
2022/05/16 07:07:57;;;;;;;8.50;4.40;;;;;;;20.96;66.13;98721.50;4985755;28;20243;-62
2022/05/16 07:10:25;;;;;;;8.97;4.67;;;;;;;21.07;62.85;98719.97;4982518;28;20212;-62
2022/05/16 07:12:52;;;;;;;6.53;4.67;;;;;;;21.17;66.68;98732.78;4982488;28;20719;-63
2022/05/16 07:15:21;;;;;;;8.77;4.90;;;;;;;21.21;67.40;98739.25;4986562;28;20987;-61
2022/05/16 07:17:48;;;;;;;8.33;4.87;;;;;;;21.13;67.51;98736.88;4984300;28;20206;-61
2022/05/16 07:20:16;;;;;;;10.33;4.40;;;;;;;20.99;63.71;98744.94;4963024;28;20209;-61
2022/05/16 07:22:45;;;;;;;5.30;4.33;;;;;;;21.06;62.71;98740.41;4986295;28;20288;-61
2022/05/16 07:25:22;;;;;;;8.07;4.20;;;;;;;21.04;62.40;98747.78;4986155;28;20203;-63
2022/05/16 07:27:57;;;;;;;8.17;4.63;;;;;;;21.07;62.25;98744.69;4980370;28;20222;-62
2022/05/16 07:30:28;;;;;;;7.03;4.83;;;;;;;20.90;63.35;98751.56;4967697;28;20697;-61
2022/05/16 07:32:55;;;;;;;5.70;4.47;;;;;;;20.97;62.17;98757.63;4978740;28;20229;-61
2022/05/16 07:35:26;;;;;;;8.37;4.50;;;;;;;20.92;64.82;98757.47;4985091;28;20209;-63
2022/05/16 07:37:54;;;;;;;8.63;5.00;;;;;;;20.98;64.52;98761.91;4989349;28;20250;-63
2022/05/16 07:40:22;;;;;;;10.50;5.23;;;;;;;21.04;64.78;98760.22;4984337;28;20203;-62
2022/05/16 07:42:50;;;;;;;11.97;4.80;;;;;;;21.12;64.10;98761.81;4960739;28;20263;-62
2022/05/16 07:45:18;;;;;;;7.70;4.97;;;;;;;21.26;62.74;98768.59;4982239;28;20554;-63
2022/05/16 07:47:46;;;;;;;5.80;4.50;;;;;;;21.51;59.21;98763.28;4982830;28;20208;-60
2022/05/16 07:50:15;;;;;;;7.47;4.80;;;;;;;21.59;60.27;98772.00;4978323;28;20253;-63
2022/05/16 07:52:46;;;;;;;10.33;4.37;;;;;;;21.68;63.15;98776.84;4979276;28;20219;-62
2022/05/16 07:55:14;;;;;;;10.97;4.57;;;;;;;21.77;61.66;98779.22;4980197;28;20202;-62
2022/05/16 07:57:42;;;;;;;7.73;4.40;;;;;;;22.00;58.52;98791.84;4980531;28;20218;-63
2022/05/16 08:00:10;;;;;;;8.03;4.20;;;;;;;22.03;55.45;98796.69;4964944;28;20205;-63
2022/05/16 08:02:40;;;;;;;8.30;4.43;;;;;;;21.90;57.23;98794.19;4983988;28;20218;-62
2022/05/16 08:05:28;;;;;;;9.03;4.43;;;;;;;21.92;57.75;98808.91;4983317;28;20264;-63
2022/05/16 08:10:41;;;;;;;7.93;4.37;;;;;;;21.72;56.21;98811.75;4980834;28;20221;-62
2022/05/16 08:13:11;;;;;;;12.97;4.90;;;;;;;21.64;57.45;98810.19;4967048;28;20353;-62
2022/05/16 08:15:39;;;;;;;10.00;5.10;;;;;;;21.68;57.90;98821.19;4982496;28;20368;-63
2022/05/16 08:18:09;;;;;;;12.77;5.07;;;;;;;21.52;54.89;98827.84;4963519;28;20203;-62
2022/05/16 08:20:39;;;;;;;11.30;4.50;;;;;;;21.45;57.17;98833.22;4978868;28;20199;-62
2022/05/16 08:23:06;;;;;;;8.43;4.67;;;;;;;21.40;56.46;98822.44;4978424;28;20306;-61
2022/05/16 08:25:34;;;;;;;12.87;4.73;;;;;;;21.49;57.01;98826.44;4983472;28;20205;-62
2022/05/16 08:28:01;;;;;;;10.60;4.83;;;;;;;21.61;56.93;98839.81;4987393;28;20280;-63
2022/05/16 08:30:28;;;;;;;9.27;4.53;;;;;;;21.87;55.56;98843.28;4987686;28;20210;-62
2022/05/16 08:32:57;;;;;;;8.53;4.53;;;;;;;22.10;54.78;98839.97;4977205;28;20329;-62
2022/05/16 08:35:25;;;;;;;8.73;4.77;;;;;;;22.45;56.34;98851.09;4964516;28;20221;-62
2022/05/16 08:40:48;;;;;;;10.63;4.30;;;;;;;23.88;52.21;98854.94;4983066;28;20207;-63
2022/05/16 08:43:17;;;;;;;7.37;4.40;;;;;;;24.22;50.58;98846.34;4977884;28;20308;-63
2022/05/16 08:45:50;;;;;;;7.30;3.90;;;;;;;24.00;49.75;98871.75;4976278;28;20213;-62
2022/05/16 08:48:22;;;;;;;8.97;3.50;;;;;;;24.14;49.77;98874.97;4984729;28;20336;-62
2022/05/16 08:50:53;;;;;;;12.20;3.80;;;;;;;24.79;48.21;98880.31;4977971;28;20225;-65
2022/05/16 08:53:29;;;;;;;16.03;3.63;;;;;;;24.71;48.42;98876.16;4972389;28;20323;-63
2022/05/16 08:56:00;;;;;;;9.77;4.30;;;;;;;24.60;48.62;98893.00;4974771;28;20618;-63
2022/05/16 08:58:33;;;;;;;19.07;4.57;;;;;;;24.17;49.19;98887.84;4980651;28;20280;-62
2022/05/16 09:01:06;;;;;;;8.87;4.37;;;;;;;24.18;48.38;98888.69;4965376;28;20209;-63
2022/05/16 09:03:39;;;;;;;11.70;3.73;;;;;;;24.29;49.10;98887.84;4963202;28;20202;-63
2022/05/16 09:06:15;;;;;;;10.70;3.83;;;;;;;23.96;49.09;98897.22;4984585;28;21091;-63
2022/05/16 09:08:49;;;;;;;10.83;3.70;;;;;;;24.24;50.10;98895.75;4982695;28;20195;-62
2022/05/16 09:11:22;;;;;;;12.33;4.10;;;;;;;24.21;48.33;98882.88;4990031;28;20688;-63
2022/05/16 09:13:54;;;;;;;10.70;3.47;;;;;;;24.65;48.53;98892.28;4982900;28;20307;-63
2022/05/16 09:16:45;;;;;;;8.10;3.40;;;;;;;24.58;47.80;98882.53;4988995;28;20209;-61
2022/05/16 09:19:32;;;;;;;12.23;3.80;;;;;;;24.94;47.25;98889.66;4985390;28;20211;-63
2022/05/16 09:22:05;;;;;;;13.47;4.33;;;;;;;25.07;46.78;98894.72;4984737;28;20225;-63
2022/05/16 09:24:36;;;;;;;9.30;3.67;;;;;;;25.73;45.29;98902.22;4984885;28;20202;-62
2022/05/16 09:27:08;;;;;;;11.17;3.43;;;;;;;25.73;46.39;98909.47;4967492;28;20210;-63
2022/05/16 09:29:39;;;;;;;7.37;3.43;;;;;;;25.56;45.13;98912.94;4978490;28;20208;-63
2022/05/16 09:32:10;;;;;;;11.68;3.60;;;;;;;25.45;45.96;98927.19;4982787;28;20235;-63
2022/05/16 09:34:37;;;;;;;7.90;2.97;;;;;;;24.90;46.23;98940.88;4985902;28;20537;-60
2022/05/16 09:37:05;;;;;;;7.77;3.53;;;;;;;23.83;49.65;98940.13;4982392;28;20687;-62
2022/05/16 09:39:54;;;;;;;12.83;3.23;;;;;;;23.26;51.06;98950.19;4993006;28;20231;-62
2022/05/16 09:42:23;;;;;;;7.37;3.67;;;;;;;22.91;52.00;98992.59;4985832;28;20336;-62
2022/05/16 09:44:59;;;;;;;11.83;2.80;;;;;;;22.41;52.68;98994.28;4971431;28;20684;-62
2022/05/16 09:47:37;;;;;;;9.90;2.90;;;;;;;21.81;54.53;99022.19;4965160;28;20205;-63
2022/05/16 09:50:15;;;;;;;4.43;2.40;;;;;;;21.36;56.37;99025.69;4997241;28;20225;-62
2022/05/16 09:52:46;;;;;;;6.87;2.70;;;;;;;20.60;64.58;99036.72;4990556;28;20708;-63
2022/05/16 09:55:25;;;;;;;8.70;2.70;;;;;;;20.29;69.09;99062.00;5000282;28;20191;-62
2022/05/16 09:57:56;;;;;;;12.53;2.60;;;;;;;20.00;73.19;99052.63;4996522;28;20209;-62
2022/05/16 10:00:32;;;;;;;8.93;2.93;;;;;;;19.80;72.96;99055.19;5009160;28;20278;-62
2022/05/16 10:03:13;;;;;;;8.57;2.80;;;;;;;19.51;73.45;99059.81;5007320;28;20566;-62
2022/05/16 10:05:45;;;;;;;6.43;2.20;;;;;;;19.37;76.12;99066.88;5011450;28;20538;-62
2022/05/16 10:08:16;;;;;;;3.93;2.00;;;;;;;19.14;75.85;99076.75;4998661;28;20190;-62
2022/05/16 10:10:46;;;;;;;6.73;2.50;;;;;;;19.10;76.99;99077.31;5004449;28;20573;-63
2022/05/16 10:13:14;;;;;;;6.20;2.20;;;;;;;18.95;79.17;99075.59;5001215;28;20303;-61
2022/05/16 10:15:41;;;;;;;4.57;2.40;;;;;;;18.93;82.06;99069.69;5010942;28;20192;-62
2022/05/16 10:18:13;;;;;;;5.10;1.80;;;;;;;18.92;78.11;99081.28;5010837;28;20716;-62
2022/05/16 10:20:45;;;;;;;8.73;2.07;;;;;;;19.10;80.84;99062.28;5004099;28;20201;-62
2022/05/16 10:23:17;;;;;;;6.93;2.07;;;;;;;19.27;81.64;99075.97;5003142;28;20220;-61
2022/05/16 10:25:48;;;;;;;9.00;1.90;;;;;;;19.46;78.58;99070.97;4998311;28;20210;-62
2022/05/16 10:28:20;;;;;;;5.67;2.07;;;;;;;19.65;79.79;99074.69;4992583;28;20239;-62
2022/05/16 10:33:35;;;;;;;4.20;1.97;;;;;;;19.77;78.56;99057.22;4984650;28;20207;-62
2022/05/16 10:36:06;;;;;;;4.03;1.97;;;;;;;19.71;77.35;99051.91;5004653;28;20200;-62
2022/05/16 10:38:42;;;;;;;7.27;2.03;;;;;;;19.96;76.88;99049.53;4996754;28;20522;-62
2022/05/16 10:41:36;;;;;;;5.73;2.07;;;;;;;20.25;74.61;99044.88;5011702;28;20672;-62
2022/05/16 10:44:16;;;;;;;5.97;1.93;;;;;;;20.77;79.62;99036.25;5004023;28;20301;-64
2022/05/16 10:46:55;;;;;;;5.87;2.20;;;;;;;21.04;77.88;99037.03;4995179;28;20228;-62
2022/05/16 10:49:22;;;;;;;6.07;2.20;;;;;;;21.09;73.81;99042.53;5008293;28;20555;-63
2022/05/16 10:51:55;;;;;;;5.87;2.17;;;;;;;21.04;72.93;99031.72;5005607;28;20355;-62
2022/05/16 10:54:24;;;;;;;5.63;2.53;;;;;;;20.75;74.27;99031.16;5008940;28;20337;-62
2022/05/16 10:57:04;;;;;;;4.17;2.80;;;;;;;20.71;74.02;99034.41;4990939;28;20566;-62
2022/05/16 10:59:52;;;;;;;9.60;3.23;;;;;;;20.67;74.70;99034.03;5003455;28;20277;-62
2022/05/16 11:02:30;;;;;;;6.33;3.37;;;;;;;20.46;77.27;99032.44;4998736;28;20303;-62
2022/05/16 11:05:31;;;;;;;10.50;3.13;;;;;;;20.25;76.68;99021.03;5000766;28;20475;-63
2022/05/16 11:08:09;;;;;;;8.20;3.37;;;;;;;20.23;73.80;99025.72;4988927;28;20223;-62
2022/05/16 11:10:44;;;;;;;8.60;3.10;;;;;;;20.27;75.43;99015.50;5003783;28;20200;-62
2022/05/16 11:13:20;;;;;;;9.63;3.50;;;;;;;20.27;73.71;99023.47;4992530;28;20218;-62
2022/05/16 11:15:54;;;;;;;9.07;3.77;;;;;;;20.14;75.67;99017.13;5001708;28;20198;-62
2022/05/16 11:18:31;;;;;;;8.23;3.83;;;;;;;20.27;74.14;99024.28;5007451;28;20654;-62
2022/05/16 11:21:07;;;;;;;5.87;3.70;;;;;;;20.24;75.20;99024.69;4984126;28;20339;-62
2022/05/16 11:23:47;;;;;;;11.23;4.03;;;;;;;20.37;76.49;99038.97;4987600;28;20197;-62
2022/05/16 11:26:27;;;;;;;10.07;4.50;;;;;;;20.15;77.40;99039.97;5010449;28;20200;-62
2022/05/16 11:29:18;;;;;;;7.87;3.40;;;;;;;20.32;78.12;99044.88;5010568;28;20202;-62
2022/05/16 11:31:56;;;;;;;7.33;3.73;;;;;;;20.60;79.20;99027.91;5013689;28;20649;-62
2022/05/16 11:34:42;;;;;;;8.77;4.40;;;;;;;20.87;75.74;99028.72;5014164;28;20210;-61
2022/05/16 11:37:19;;;;;;;8.03;4.00;;;;;;;21.39;75.28;99023.41;5013724;28;20282;-62
2022/05/16 11:39:54;;;;;;;8.60;4.40;;;;;;;21.97;73.59;99019.00;5013942;28;20203;-62
2022/05/16 11:42:28;;;;;;;6.63;3.70;;;;;;;22.41;71.21;99011.06;5013723;28;20217;-63
2022/05/16 11:45:09;;;;;;;6.13;3.50;;;;;;;22.65;69.24;99008.63;5007508;28;20730;-63
2022/05/16 11:47:43;;;;;;;6.37;3.53;;;;;;;22.87;68.33;99002.84;4998504;28;20207;-62
2022/05/16 11:50:22;;;;;;;9.63;4.00;;;;;;;22.79;65.34;98995.19;4999142;28;20248;-63
2022/05/16 11:52:56;;;;;;;8.20;3.47;;;;;;;22.97;64.83;99003.13;5008874;28;20220;-62
2022/05/16 12:01:01;;;;;;;7.47;4.00;;;;;;;23.45;63.82;98990.09;5013813;28;20208;-62
2022/05/16 12:03:37;;;;;;;4.97;3.40;;;;;;;23.24;65.77;98986.88;5013781;28;20188;-62
2022/05/16 12:06:25;;;;;;;8.33;4.30;;;;;;;23.47;65.32;98995.16;4996382;28;20260;-62
2022/05/16 12:09:17;;;;;;;11.43;4.30;;;;;;;23.10;66.03;98982.72;4994030;28;20201;-62
2022/05/16 12:11:57;;;;;;;11.00;4.33;;;;;;;23.35;66.68;98995.94;5004841;28;20246;-62
2022/05/16 12:14:29;;;;;;;8.30;4.10;;;;;;;23.64;66.50;98988.16;5013527;28;20278;-62
2022/05/16 12:17:18;;;;;;;9.53;3.73;;;;;;;23.33;63.83;98995.34;5005674;28;20209;-62